createdAt,value
2023-01-25T00:01:08.346Z,14.00
2023-01-25T00:03:36.235Z,15.37
2023-01-25T00:06:04.291Z,13.77
2023-01-25T00:08:32.145Z,15.37
2023-01-25T00:10:59.925Z,14.30
2023-01-25T00:13:27.865Z,14.80
2023-01-25T00:16:01.360Z,14.63
2023-01-25T00:18:30.636Z,14.13
2023-01-25T00:20:58.446Z,15.00
2023-01-25T00:23:26.301Z,16.20
2023-01-25T00:25:58.785Z,13.83
2023-01-25T00:28:26.803Z,14.77
2023-01-25T00:30:54.629Z,12.90
2023-01-25T00:33:41.411Z,14.23
2023-01-25T00:36:41.352Z,14.60
2023-01-25T00:39:13.676Z,13.90
2023-01-25T00:41:41.894Z,14.30
2023-01-25T00:44:09.761Z,14.47
2023-01-25T00:46:37.655Z,14.67
2023-01-25T00:49:06.926Z,14.63
2023-01-25T00:51:34.799Z,14.97
2023-01-25T00:54:02.612Z,14.33
2023-01-25T00:56:30.417Z,14.03
2023-01-25T00:58:58.275Z,13.70
2023-01-25T01:01:26.161Z,14.67
2023-01-25T01:03:54.057Z,14.40
2023-01-25T01:06:23.235Z,14.33
2023-01-25T01:08:51.055Z,13.50
2023-01-25T01:11:18.915Z,14.17
2023-01-25T01:13:46.762Z,14.80
2023-01-25T01:16:15.259Z,14.57
2023-01-25T01:18:45.580Z,13.63
2023-01-25T01:21:14.363Z,14.83
2023-01-25T01:23:44.176Z,14.50
2023-01-25T01:26:14.423Z,15.37
2023-01-25T01:28:42.772Z,15.03
2023-01-25T01:31:13.376Z,15.70
2023-01-25T01:33:42.063Z,14.53
2023-01-25T01:36:11.028Z,15.00
2023-01-25T01:38:38.918Z,13.80
2023-01-25T01:41:08.563Z,14.17
2023-01-25T01:43:36.784Z,14.77
2023-01-25T01:46:07.176Z,14.10
2023-01-25T01:48:39.464Z,14.10
2023-01-25T01:51:15.251Z,15.83
2023-01-25T01:53:49.055Z,14.77
2023-01-25T01:56:23.378Z,14.77
2023-01-25T01:58:54.378Z,15.20
2023-01-25T02:01:22.212Z,14.10
2023-01-25T02:03:51.353Z,14.70
2023-01-25T02:06:27.393Z,15.83
2023-01-25T02:08:56.433Z,14.47
2023-01-25T02:11:27.939Z,14.67
2023-01-25T02:13:58.991Z,15.83
2023-01-25T02:16:29.249Z,16.37
2023-01-25T02:19:02.070Z,14.23
2023-01-25T02:21:36.315Z,14.80
2023-01-25T02:24:11.735Z,14.67
2023-01-25T02:26:41.118Z,14.67
2023-01-25T02:29:10.662Z,15.87
2023-01-25T02:31:38.541Z,16.07
2023-01-25T02:34:06.461Z,14.87
2023-01-25T02:36:35.829Z,14.73
2023-01-25T02:39:08.554Z,14.07
2023-01-25T02:41:38.332Z,15.50
2023-01-25T02:44:10.878Z,13.90
2023-01-25T02:46:40.165Z,14.03
2023-01-25T02:49:09.879Z,14.80
2023-01-25T02:51:40.365Z,15.43
2023-01-25T02:54:09.872Z,15.47
2023-01-25T02:56:38.387Z,14.60
2023-01-25T02:59:08.234Z,15.20
2023-01-25T03:01:36.902Z,15.30
2023-01-25T03:04:05.454Z,14.73
2023-01-25T03:06:33.302Z,14.33
2023-01-25T03:09:01.287Z,15.33
2023-01-25T03:11:29.192Z,15.50
2023-01-25T03:13:56.997Z,15.33
2023-01-25T03:16:26.476Z,14.90
2023-01-25T03:18:55.426Z,15.40
2023-01-25T03:21:24.163Z,15.70
2023-01-25T03:23:57.008Z,14.53
2023-01-25T03:26:26.094Z,15.53
2023-01-25T03:28:53.889Z,15.50
2023-01-25T03:31:21.854Z,14.30
2023-01-25T03:33:51.388Z,17.10
2023-01-25T03:36:19.551Z,15.23
2023-01-25T03:38:47.536Z,15.67
2023-01-25T03:41:15.356Z,16.00
2023-01-25T03:43:43.177Z,15.83
2023-01-25T03:46:10.985Z,15.13
2023-01-25T03:48:38.764Z,15.43
2023-01-25T03:51:07.971Z,14.13
2023-01-25T03:53:35.804Z,15.10
2023-01-25T03:56:07.133Z,15.17
2023-01-25T03:58:36.244Z,15.23
2023-01-25T04:01:05.939Z,15.43
2023-01-25T04:03:34.475Z,14.53
2023-01-25T04:06:02.494Z,15.80
2023-01-25T04:08:31.855Z,15.27
2023-01-25T04:11:03.046Z,14.77
2023-01-25T04:13:31.359Z,15.00
2023-01-25T04:15:59.193Z,15.50
2023-01-25T04:18:27.091Z,15.27
2023-01-25T04:20:55.498Z,15.40
2023-01-25T04:23:23.834Z,15.20
2023-01-25T04:25:56.975Z,15.93
2023-01-25T04:28:25.749Z,14.83
2023-01-25T04:30:54.641Z,13.80
2023-01-25T04:33:22.904Z,14.67
2023-01-25T04:35:50.830Z,13.57
2023-01-25T04:38:19.317Z,15.10
2023-01-25T04:40:47.161Z,14.20
2023-01-25T04:43:17.398Z,14.50
2023-01-25T04:45:45.415Z,14.80
2023-01-25T04:48:15.151Z,14.30
2023-01-25T04:50:44.103Z,14.20
2023-01-25T04:53:13.457Z,14.93
2023-01-25T04:55:41.272Z,13.53
2023-01-25T04:58:09.065Z,14.57
2023-01-25T05:00:38.238Z,14.73
2023-01-25T05:03:06.025Z,15.10
2023-01-25T05:05:33.804Z,14.60
2023-01-25T05:08:01.653Z,14.33
2023-01-25T05:10:29.447Z,14.37
2023-01-25T05:12:57.240Z,13.70
2023-01-25T05:15:25.051Z,14.57
2023-01-25T05:17:54.198Z,14.77
2023-01-25T05:20:21.994Z,13.70
2023-01-25T05:22:49.817Z,15.23
2023-01-25T05:25:35.135Z,14.70
2023-01-25T05:28:05.612Z,15.00
2023-01-25T05:30:33.404Z,15.37
2023-01-25T05:33:02.895Z,14.47
2023-01-25T05:35:30.745Z,15.77
2023-01-25T05:37:59.014Z,15.80
2023-01-25T05:40:27.597Z,15.00
2023-01-25T05:42:56.400Z,14.00
2023-01-25T05:45:24.502Z,14.60
2023-01-25T05:47:55.353Z,15.17
2023-01-25T05:50:25.758Z,14.13
2023-01-25T05:52:54.353Z,15.63
2023-01-25T05:55:22.167Z,16.03
2023-01-25T05:57:50.444Z,15.20
2023-01-25T06:00:19.194Z,14.90
2023-01-25T06:02:47.065Z,16.37
2023-01-25T06:05:15.102Z,15.80
2023-01-25T06:07:44.219Z,14.10
2023-01-25T06:10:12.396Z,15.03
2023-01-25T06:12:40.456Z,14.93
2023-01-25T06:15:09.759Z,16.70
2023-01-25T06:17:37.707Z,16.63
2023-01-25T06:20:06.739Z,16.13
2023-01-25T06:22:34.547Z,14.60
2023-01-25T06:25:03.728Z,14.33
2023-01-25T06:27:31.503Z,15.47
2023-01-25T06:29:59.333Z,15.80
2023-01-25T06:32:32.230Z,15.20
2023-01-25T06:35:00.084Z,15.33
2023-01-25T06:37:27.960Z,15.43
2023-01-25T06:39:55.752Z,15.40
2023-01-25T06:42:26.589Z,15.90
2023-01-25T06:44:54.435Z,17.40
2023-01-25T06:47:22.248Z,17.60
2023-01-25T06:49:50.093Z,15.07
2023-01-25T06:52:17.889Z,15.17
2023-01-25T06:54:46.042Z,16.57
2023-01-25T06:57:13.871Z,15.77
2023-01-25T06:59:43.021Z,16.70
2023-01-25T07:02:15.211Z,16.70
2023-01-25T07:04:43.163Z,16.73
2023-01-25T07:07:11.213Z,16.97
2023-01-25T07:09:39.039Z,16.40
2023-01-25T07:12:07.589Z,14.57
2023-01-25T07:14:35.400Z,17.10
2023-01-25T07:17:04.521Z,16.10
2023-01-25T07:19:32.322Z,16.03
2023-01-25T07:22:00.145Z,15.50
2023-01-25T07:24:29.483Z,17.10
2023-01-25T07:26:57.409Z,15.80
2023-01-25T07:29:25.263Z,16.40
2023-01-25T07:31:53.197Z,16.30
2023-01-25T07:34:23.122Z,15.90
2023-01-25T07:36:50.905Z,17.03
2023-01-25T07:39:18.793Z,18.70
2023-01-25T07:41:46.565Z,16.10
2023-01-25T07:44:14.495Z,16.07
2023-01-25T07:46:42.318Z,16.40
2023-01-25T07:49:10.135Z,17.17
2023-01-25T07:51:39.275Z,17.70
2023-01-25T07:54:07.129Z,17.50
2023-01-25T07:56:36.517Z,17.20
2023-01-25T07:59:04.862Z,17.07
2023-01-25T08:01:34.381Z,16.30
2023-01-25T08:04:03.327Z,17.20
2023-01-25T08:06:34.591Z,15.97
2023-01-25T08:09:06.440Z,16.50
2023-01-25T08:11:34.722Z,17.10
2023-01-25T08:14:03.213Z,18.40
2023-01-25T08:16:34.071Z,18.00
2023-01-25T08:19:03.400Z,17.07
2023-01-25T08:21:33.763Z,19.03
2023-01-25T08:24:05.544Z,19.50
2023-01-25T08:26:34.277Z,18.07
2023-01-25T08:29:02.098Z,16.73
2023-01-25T08:31:32.158Z,18.37
2023-01-25T08:34:00.724Z,17.00
2023-01-25T08:36:28.874Z,16.63
2023-01-25T08:38:58.712Z,19.03
2023-01-25T08:41:29.750Z,16.27
2023-01-25T08:43:58.464Z,18.50
2023-01-25T08:46:30.516Z,18.70
2023-01-25T08:49:01.137Z,17.50
2023-01-25T08:51:31.640Z,18.60
2023-01-25T08:54:03.620Z,17.73
2023-01-25T08:56:32.847Z,16.70
2023-01-25T08:59:00.647Z,18.17
2023-01-25T09:01:29.073Z,17.53
2023-01-25T09:03:57.817Z,17.73
2023-01-25T09:06:25.727Z,20.00
2023-01-25T09:08:53.516Z,16.77
2023-01-25T09:11:23.243Z,17.90
2023-01-25T09:13:52.403Z,17.57
2023-01-25T09:16:28.148Z,17.30
2023-01-25T09:19:01.625Z,15.87
2023-01-25T09:21:30.518Z,17.07
2023-01-25T09:24:07.451Z,17.37
2023-01-25T09:26:37.767Z,17.50
2023-01-25T09:29:08.146Z,17.07
2023-01-25T09:31:40.309Z,18.50
2023-01-25T09:34:08.701Z,17.40
2023-01-25T09:36:37.094Z,16.53
2023-01-25T09:39:05.352Z,16.43
2023-01-25T09:41:58.271Z,18.03
2023-01-25T09:44:42.188Z,16.77
2023-01-25T09:47:17.168Z,17.00
2023-01-25T09:49:59.344Z,16.27
2023-01-25T09:52:47.931Z,16.50
2023-01-25T09:55:19.441Z,17.57
2023-01-25T09:57:50.532Z,16.77
2023-01-25T10:00:24.462Z,17.53
2023-01-25T10:02:57.801Z,17.13
2023-01-25T10:05:32.045Z,16.70
2023-01-25T10:08:07.115Z,17.60
2023-01-25T10:10:39.244Z,17.20
2023-01-25T10:13:12.321Z,16.37
2023-01-25T10:15:45.031Z,17.50
2023-01-25T10:18:21.927Z,17.10
2023-01-25T10:20:54.990Z,15.93
2023-01-25T10:23:41.444Z,16.50
2023-01-25T10:26:19.092Z,15.13
2023-01-25T10:28:55.774Z,16.30
2023-01-25T10:31:32.830Z,16.30
2023-01-25T10:34:09.443Z,16.33
2023-01-25T10:36:37.322Z,16.63
2023-01-25T10:39:07.713Z,16.27
2023-01-25T10:41:40.816Z,16.80
2023-01-25T10:44:24.929Z,17.30
2023-01-25T10:47:02.271Z,16.63
2023-01-25T10:49:41.136Z,16.37
2023-01-25T10:52:18.135Z,16.43
2023-01-25T10:54:46.521Z,17.40
2023-01-25T10:57:18.494Z,16.37
2023-01-25T10:59:48.999Z,16.17
2023-01-25T11:02:40.502Z,18.47
2023-01-25T11:05:33.540Z,18.33
2023-01-25T11:08:21.896Z,16.90
2023-01-25T11:10:50.414Z,17.03
2023-01-25T11:13:24.157Z,16.63
2023-01-25T11:15:53.870Z,16.97
2023-01-25T11:18:25.969Z,16.60
2023-01-25T11:21:07.976Z,16.67
2023-01-25T11:23:35.764Z,17.90
2023-01-25T11:26:16.506Z,16.10
2023-01-25T11:28:46.019Z,16.47
2023-01-25T11:31:15.925Z,17.47
2023-01-25T11:33:45.163Z,17.10
2023-01-25T11:36:23.542Z,15.80
2023-01-25T11:39:10.784Z,16.50
2023-01-25T11:41:49.400Z,15.33
2023-01-25T11:44:47.797Z,15.40
2023-01-25T11:47:27.115Z,13.93
2023-01-25T11:50:08.202Z,15.33
2023-01-25T11:52:52.825Z,16.43
2023-01-25T11:55:27.592Z,13.93
2023-01-25T11:58:11.166Z,15.53
2023-01-25T12:00:59.221Z,13.70
2023-01-25T12:03:47.465Z,16.63
2023-01-25T12:06:22.271Z,15.67
2023-01-25T12:09:26.926Z,15.23
2023-01-25T12:12:06.975Z,13.80
2023-01-25T12:14:48.268Z,15.30
2023-01-25T12:17:38.970Z,15.60
2023-01-25T12:20:24.978Z,14.50
2023-01-25T12:23:11.889Z,15.67
2023-01-25T12:25:54.138Z,14.23
2023-01-25T12:28:27.118Z,15.73
2023-01-25T12:30:59.199Z,13.63
2023-01-25T12:33:33.877Z,15.20
2023-01-25T12:36:07.655Z,14.70
2023-01-25T12:38:42.517Z,15.37
2023-01-25T12:41:19.776Z,13.03
2023-01-25T12:43:53.804Z,14.27
2023-01-25T12:46:29.362Z,13.90
2023-01-25T12:49:02.324Z,14.87
2023-01-25T12:51:36.517Z,14.87
2023-01-25T12:54:13.708Z,13.40
2023-01-25T12:56:45.192Z,13.60
2023-01-25T12:59:19.682Z,13.60
2023-01-25T13:01:52.367Z,13.13
2023-01-25T13:04:48.901Z,14.47
2023-01-25T13:07:21.690Z,14.00
2023-01-25T13:10:00.394Z,15.90
2023-01-25T13:12:28.564Z,14.40
2023-01-25T13:14:56.459Z,14.00
2023-01-25T13:17:31.547Z,13.80
2023-01-25T13:20:00.243Z,13.97
2023-01-25T13:22:58.626Z,13.13
2023-01-25T13:25:28.559Z,13.53
2023-01-25T13:28:29.992Z,13.43
2023-01-25T13:30:57.878Z,13.50
2023-01-25T13:33:34.453Z,13.43
2023-01-25T13:36:35.715Z,12.87
2023-01-25T13:39:23.572Z,13.40
2023-01-25T13:42:03.276Z,12.40
2023-01-25T13:44:33.193Z,11.83
2023-01-25T13:47:03.384Z,12.50
2023-01-25T13:49:36.565Z,14.33
2023-01-25T13:52:05.619Z,13.90
2023-01-25T13:54:33.431Z,14.17
2023-01-25T13:57:06.797Z,13.67
2023-01-25T13:59:34.621Z,13.50
2023-01-25T14:02:02.878Z,13.33
2023-01-25T14:04:31.627Z,13.70
2023-01-25T14:07:02.837Z,13.97
2023-01-25T14:09:31.353Z,12.77
2023-01-25T14:12:02.223Z,13.10
2023-01-25T14:14:33.530Z,12.83
2023-01-25T14:17:15.836Z,13.33
2023-01-25T14:19:45.204Z,11.47
2023-01-25T14:22:23.046Z,13.57
2023-01-25T14:25:05.019Z,13.73
2023-01-25T14:27:34.071Z,13.70
2023-01-25T14:30:05.416Z,13.50
2023-01-25T14:32:34.051Z,14.27
2023-01-25T14:35:43.021Z,12.70
2023-01-25T14:38:26.957Z,13.80
2023-01-25T14:40:57.822Z,14.97
2023-01-25T14:43:26.730Z,14.63
2023-01-25T14:45:56.005Z,13.00
2023-01-25T14:48:37.860Z,13.80
2023-01-25T14:51:12.713Z,13.17
2023-01-25T14:53:42.825Z,12.80
2023-01-25T14:56:26.499Z,12.10
2023-01-25T14:58:59.752Z,12.80
2023-01-25T15:01:34.275Z,12.63
2023-01-25T15:04:02.240Z,13.60
2023-01-25T15:06:30.126Z,13.43
2023-01-25T15:08:57.972Z,13.50
2023-01-25T15:11:38.753Z,12.97
2023-01-25T15:14:18.083Z,13.33
2023-01-25T15:16:47.568Z,13.20
2023-01-25T15:19:27.296Z,13.17
2023-01-25T15:22:00.261Z,13.30
2023-01-25T15:24:28.764Z,12.43
2023-01-25T15:26:56.844Z,12.43
2023-01-25T15:29:27.005Z,13.20
2023-01-25T15:31:57.237Z,13.63
2023-01-25T15:34:29.205Z,12.70
2023-01-25T15:36:57.037Z,12.80
2023-01-25T15:39:24.871Z,13.50
2023-01-25T15:41:52.699Z,13.33
2023-01-25T15:44:21.025Z,13.00
2023-01-25T15:46:52.311Z,12.67
2023-01-25T15:49:25.841Z,12.23
2023-01-25T15:51:53.928Z,12.30
2023-01-25T15:54:21.786Z,13.10
2023-01-25T15:56:55.189Z,13.47
2023-01-25T15:59:23.175Z,14.27
2023-01-25T16:01:51.031Z,13.63
2023-01-25T16:04:18.958Z,14.00
2023-01-25T16:06:50.711Z,13.40
2023-01-25T16:09:21.604Z,14.00
2023-01-25T16:11:52.624Z,12.57
2023-01-25T16:14:20.799Z,14.47
2023-01-25T16:16:50.722Z,14.40
2023-01-25T16:19:22.710Z,13.47
2023-01-25T16:21:52.408Z,13.40
2023-01-25T16:24:20.535Z,13.70
2023-01-25T16:26:51.616Z,12.80
2023-01-25T16:29:19.426Z,14.90
2023-01-25T16:31:47.331Z,13.80
2023-01-25T16:34:15.252Z,14.83
2023-01-25T16:36:47.771Z,13.83
2023-01-25T16:39:20.003Z,14.00
2023-01-25T16:41:48.095Z,12.90
2023-01-25T16:44:16.338Z,14.77
2023-01-25T16:46:44.153Z,14.90
2023-01-25T16:49:17.277Z,14.77
2023-01-25T16:51:45.962Z,13.67
2023-01-25T16:54:13.761Z,14.63
2023-01-25T16:56:42.932Z,15.43
2023-01-25T16:59:11.651Z,15.17
2023-01-25T17:01:41.327Z,14.67
2023-01-25T17:04:09.374Z,14.20
2023-01-25T17:06:39.351Z,15.17
2023-01-25T17:09:21.610Z,15.07
2023-01-25T17:11:52.008Z,14.00
2023-01-25T17:14:20.793Z,15.07
2023-01-25T17:16:51.409Z,14.37
2023-01-25T17:19:20.164Z,13.60
2023-01-25T17:21:48.450Z,13.60
2023-01-25T17:24:18.879Z,14.80
2023-01-25T17:26:46.789Z,14.87
2023-01-25T17:29:15.929Z,15.30
2023-01-25T17:31:44.402Z,15.53
2023-01-25T17:34:15.959Z,15.07
2023-01-25T17:36:44.440Z,15.70
2023-01-25T17:39:15.298Z,14.53
2023-01-25T17:41:43.174Z,14.57
2023-01-25T17:44:11.035Z,15.53
2023-01-25T17:46:40.273Z,15.07
2023-01-25T17:49:11.467Z,15.60
2023-01-25T17:51:39.649Z,17.00
2023-01-25T17:54:07.800Z,16.93
2023-01-25T17:56:38.535Z,15.90
2023-01-25T17:59:08.875Z,16.07
2023-01-25T18:01:37.307Z,15.70
2023-01-25T18:04:08.597Z,17.37
2023-01-25T18:06:37.056Z,16.70
2023-01-25T18:09:07.012Z,17.57
2023-01-25T18:11:36.386Z,16.20
2023-01-25T18:14:08.861Z,18.10
2023-01-25T18:16:39.391Z,16.57
2023-01-25T18:19:09.762Z,16.73
2023-01-25T18:21:38.660Z,17.17
2023-01-25T18:24:23.002Z,16.23
2023-01-25T18:26:52.316Z,16.53
2023-01-25T18:29:41.057Z,15.73
2023-01-25T18:32:08.897Z,16.13
2023-01-25T18:34:38.105Z,15.93
2023-01-25T18:37:17.675Z,16.73
2023-01-25T18:39:45.847Z,18.17
2023-01-25T18:42:13.711Z,16.83
2023-01-25T18:44:41.554Z,17.40
2023-01-25T18:47:13.632Z,17.93
2023-01-25T18:49:42.942Z,18.70
2023-01-25T18:52:12.026Z,17.50
2023-01-25T18:54:39.975Z,18.40
2023-01-25T18:57:07.831Z,18.43
2023-01-25T18:59:35.624Z,17.40
2023-01-25T19:02:03.729Z,19.70
2023-01-25T19:04:31.754Z,18.50
2023-01-25T19:07:01.530Z,17.67
2023-01-25T19:09:29.659Z,17.40
2023-01-25T19:11:57.922Z,17.17
2023-01-25T19:14:26.162Z,18.00
2023-01-25T19:16:54.128Z,17.80
2023-01-25T19:19:23.468Z,17.77
2023-01-25T19:21:51.295Z,18.50
2023-01-25T19:24:20.793Z,16.30
2023-01-25T19:26:48.652Z,18.70
2023-01-25T19:29:16.887Z,17.90
2023-01-25T19:31:44.964Z,18.60
2023-01-25T19:34:12.908Z,18.20
2023-01-25T19:36:45.853Z,18.23
2023-01-25T19:39:14.418Z,20.57
2023-01-25T19:41:43.634Z,19.80
2023-01-25T19:44:13.769Z,18.70
2023-01-25T19:46:42.029Z,18.67
2023-01-25T19:49:13.165Z,18.90
2023-01-25T19:51:44.184Z,18.20
2023-01-25T19:54:15.790Z,19.20
2023-01-25T19:56:46.734Z,19.40
2023-01-25T19:59:16.664Z,18.00
2023-01-25T20:01:45.204Z,18.70
2023-01-25T20:04:14.408Z,18.70
2023-01-25T20:06:42.575Z,18.73
2023-01-25T20:09:12.769Z,18.00
2023-01-25T20:11:40.895Z,18.83
2023-01-25T20:14:12.302Z,18.27
2023-01-25T20:16:40.140Z,19.10
2023-01-25T20:19:07.992Z,18.37
2023-01-25T20:21:38.123Z,19.00
2023-01-25T20:24:07.220Z,18.67
2023-01-25T20:26:39.041Z,17.80
2023-01-25T20:29:08.198Z,19.13
2023-01-25T20:31:39.252Z,19.40
2023-01-25T20:34:08.876Z,20.33
2023-01-25T20:36:37.252Z,19.00
2023-01-25T20:39:06.434Z,19.43
2023-01-25T20:41:34.590Z,18.80
2023-01-25T20:44:08.416Z,18.67
2023-01-25T20:46:39.111Z,20.10
2023-01-25T20:49:08.094Z,19.27
2023-01-25T20:51:36.222Z,21.50
2023-01-25T20:54:04.242Z,19.27
2023-01-25T20:56:32.742Z,21.13
2023-01-25T20:59:00.560Z,18.93
2023-01-25T21:01:30.502Z,18.40
2023-01-25T21:03:59.715Z,20.00
2023-01-25T21:06:28.734Z,18.30
2023-01-25T21:08:56.661Z,18.77
2023-01-25T21:11:25.039Z,18.80
2023-01-25T21:13:53.898Z,17.43
2023-01-25T21:16:23.209Z,19.67
2023-01-25T21:18:52.573Z,18.20
2023-01-25T21:21:23.326Z,19.17
2023-01-25T21:23:51.875Z,18.30
2023-01-25T21:26:21.233Z,18.70
2023-01-25T21:28:49.728Z,18.53
2023-01-25T21:31:19.228Z,17.30
2023-01-25T21:33:47.920Z,18.70
2023-01-25T21:36:18.051Z,18.67
2023-01-25T21:38:49.119Z,18.40
2023-01-25T21:41:19.931Z,20.27
2023-01-25T21:44:05.258Z,17.87
2023-01-25T21:46:33.191Z,16.73
2023-01-25T21:49:19.901Z,18.60
2023-01-25T21:51:50.148Z,18.47
2023-01-25T21:54:20.483Z,18.97
2023-01-25T21:56:49.882Z,18.70
2023-01-25T21:59:18.022Z,18.10
2023-01-25T22:01:46.200Z,18.40
2023-01-25T22:04:15.449Z,20.43
2023-01-25T22:06:43.809Z,18.30
2023-01-25T22:09:13.484Z,17.77
2023-01-25T22:11:45.811Z,16.40
2023-01-25T22:14:13.692Z,19.37
2023-01-25T22:16:41.526Z,18.07
2023-01-25T22:19:09.516Z,18.80
2023-01-25T22:21:37.385Z,19.03
2023-01-25T22:24:06.585Z,19.00
2023-01-25T22:26:44.743Z,18.50
2023-01-25T22:29:14.973Z,19.43
2023-01-25T22:31:43.189Z,19.17
2023-01-25T22:34:11.890Z,18.83
2023-01-25T22:36:39.684Z,19.37
2023-01-25T22:39:07.509Z,17.50
2023-01-25T22:41:38.091Z,19.63
2023-01-25T22:44:06.100Z,17.93
2023-01-25T22:46:35.481Z,17.73
2023-01-25T22:49:04.703Z,17.93
2023-01-25T22:51:33.422Z,18.73
2023-01-25T22:54:01.567Z,18.30
2023-01-25T22:56:31.701Z,19.17
2023-01-25T22:59:00.548Z,17.73
2023-01-25T23:01:30.437Z,19.07
2023-01-25T23:04:00.340Z,17.87
2023-01-25T23:06:29.948Z,18.67
2023-01-25T23:08:59.842Z,19.10
2023-01-25T23:11:32.037Z,18.93
2023-01-25T23:14:17.960Z,19.10
2023-01-25T23:16:45.844Z,20.97
2023-01-25T23:19:14.756Z,18.60
2023-01-25T23:21:42.584Z,20.03
2023-01-25T23:24:12.045Z,20.13
2023-01-25T23:26:45.996Z,19.83
2023-01-25T23:29:14.372Z,18.00
2023-01-25T23:31:42.386Z,18.97
2023-01-25T23:34:13.920Z,18.63
2023-01-25T23:36:42.385Z,18.77
2023-01-25T23:39:13.290Z,18.20
2023-01-25T23:41:41.113Z,18.50
2023-01-25T23:44:09.772Z,19.17
2023-01-25T23:46:37.624Z,19.00
2023-01-25T23:49:05.473Z,19.60
2023-01-25T23:51:34.620Z,20.67
2023-01-25T23:54:02.537Z,19.60
2023-01-25T23:56:30.444Z,19.67
2023-01-25T23:58:58.679Z,20.10
